createdAt,value
2023-02-26T00:01:30.860Z,90.12
2023-02-26T00:04:01.056Z,90.32
2023-02-26T00:06:29.180Z,90.28
2023-02-26T00:08:56.927Z,90.30
2023-02-26T00:11:24.482Z,90.25
2023-02-26T00:13:52.016Z,90.04
2023-02-26T00:16:28.648Z,90.16
2023-02-26T00:18:58.107Z,89.88
2023-02-26T00:21:26.528Z,90.09
2023-02-26T00:23:54.086Z,90.07
2023-02-26T00:26:23.410Z,89.63
2023-02-26T00:28:50.862Z,89.53
2023-02-26T00:31:21.178Z,89.54
2023-02-26T00:33:48.404Z,89.34
2023-02-26T00:36:24.799Z,89.12
2023-02-26T00:39:15.473Z,89.48
2023-02-26T00:41:43.022Z,89.09
2023-02-26T00:44:10.444Z,89.15
2023-02-26T00:47:05.502Z,89.13
2023-02-26T00:49:45.431Z,88.90
2023-02-26T00:52:27.242Z,88.91
2023-02-26T00:54:54.468Z,88.99
2023-02-26T00:57:21.613Z,88.92
2023-02-26T00:59:48.740Z,88.90
2023-02-26T01:02:15.806Z,89.35
2023-02-26T01:04:43.102Z,88.72
2023-02-26T01:07:11.004Z,88.65
2023-02-26T01:09:38.776Z,88.94
2023-02-26T01:12:09.292Z,89.08
2023-02-26T01:14:37.139Z,89.04
2023-02-26T01:17:22.857Z,88.94
2023-02-26T01:19:54.704Z,89.16
2023-02-26T01:23:03.569Z,89.05
2023-02-26T01:25:55.008Z,88.84
2023-02-26T01:28:22.488Z,88.80
2023-02-26T01:30:51.579Z,88.66
2023-02-26T01:33:35.534Z,88.87
2023-02-26T01:36:15.783Z,88.27
2023-02-26T01:39:01.487Z,88.60
2023-02-26T01:41:39.101Z,88.62
2023-02-26T01:44:08.631Z,88.46
2023-02-26T01:47:05.104Z,88.22
2023-02-26T01:49:34.352Z,88.12
2023-02-26T01:52:03.597Z,88.08
2023-02-26T01:54:38.863Z,87.54
2023-02-26T01:57:12.821Z,88.20
2023-02-26T01:59:43.267Z,87.89
2023-02-26T02:02:13.702Z,87.94
2023-02-26T02:04:42.410Z,88.05
2023-02-26T02:07:09.791Z,87.88
2023-02-26T02:09:37.034Z,88.05
2023-02-26T02:12:22.705Z,88.08
2023-02-26T02:15:06.055Z,88.15
2023-02-26T02:17:36.212Z,88.22
2023-02-26T02:20:25.380Z,88.14
2023-02-26T02:23:18.787Z,88.11
2023-02-26T02:25:48.792Z,88.45
2023-02-26T02:28:28.131Z,88.21
2023-02-26T02:31:10.842Z,87.77
2023-02-26T02:33:50.111Z,88.21
2023-02-26T02:36:31.696Z,87.98
2023-02-26T02:39:04.970Z,88.33
2023-02-26T02:41:39.397Z,88.29
2023-02-26T02:44:12.695Z,88.34
2023-02-26T02:46:42.211Z,88.58
2023-02-26T02:49:22.620Z,88.27
2023-02-26T02:51:57.220Z,88.45
2023-02-26T02:54:36.316Z,88.24
2023-02-26T02:57:16.331Z,88.43
2023-02-26T02:59:49.563Z,88.64
2023-02-26T03:02:40.716Z,88.36
2023-02-26T03:05:08.252Z,88.92
2023-02-26T03:07:43.808Z,88.58
2023-02-26T03:10:12.294Z,88.74
2023-02-26T03:12:39.373Z,88.80
2023-02-26T03:15:08.254Z,88.85
2023-02-26T03:17:54.079Z,89.03
2023-02-26T03:20:36.738Z,88.82
2023-02-26T03:23:15.532Z,89.12
2023-02-26T03:25:57.532Z,89.51
2023-02-26T03:28:40.694Z,89.34
2023-02-26T03:31:13.857Z,89.10
2023-02-26T03:33:58.689Z,89.49
2023-02-26T03:36:44.833Z,89.27
2023-02-26T03:39:45.747Z,89.32
2023-02-26T03:42:32.377Z,89.10
2023-02-26T03:45:06.001Z,89.23
2023-02-26T03:47:35.310Z,89.42
2023-02-26T03:50:08.824Z,89.09
2023-02-26T03:52:49.205Z,88.84
2023-02-26T03:56:00.581Z,88.98
2023-02-26T03:58:46.415Z,89.23
2023-02-26T04:01:49.346Z,89.38
2023-02-26T04:04:55.758Z,89.44
2023-02-26T04:07:23.654Z,88.99
2023-02-26T04:09:52.394Z,89.40
2023-02-26T04:12:25.385Z,89.74
2023-02-26T04:14:55.792Z,89.62
2023-02-26T04:17:23.151Z,89.79
2023-02-26T04:19:50.460Z,89.66
2023-02-26T04:22:18.419Z,89.49
2023-02-26T04:24:46.091Z,89.90
2023-02-26T04:27:15.030Z,90.18
2023-02-26T04:29:42.237Z,90.25
2023-02-26T04:32:09.484Z,90.11
2023-02-26T04:34:36.655Z,89.89
2023-02-26T04:37:04.892Z,89.87
2023-02-26T04:39:32.237Z,89.94
2023-02-26T04:41:59.331Z,90.36
2023-02-26T04:44:26.453Z,90.48
2023-02-26T04:46:53.571Z,90.33
2023-02-26T04:49:20.822Z,90.44
2023-02-26T04:51:48.114Z,90.31
2023-02-26T04:54:16.414Z,90.19
2023-02-26T04:56:43.573Z,90.17
2023-02-26T04:59:10.768Z,90.48
2023-02-26T05:01:38.031Z,90.71
2023-02-26T05:04:08.017Z,90.23
2023-02-26T05:06:35.809Z,90.05
2023-02-26T05:09:03.134Z,90.57
2023-02-26T05:11:30.912Z,90.60
2023-02-26T05:13:58.108Z,90.69
2023-02-26T05:16:25.607Z,90.78
2023-02-26T05:18:53.046Z,90.99
2023-02-26T05:21:22.730Z,90.98
2023-02-26T05:23:51.126Z,90.74
2023-02-26T05:26:18.194Z,91.20
2023-02-26T05:28:46.005Z,91.54
2023-02-26T05:31:13.962Z,91.42
2023-02-26T05:33:41.649Z,91.48
2023-02-26T05:36:09.475Z,91.51
2023-02-26T05:38:36.896Z,91.51
2023-02-26T05:41:04.182Z,91.77
2023-02-26T05:43:31.560Z,91.76
2023-02-26T05:45:58.705Z,91.93
2023-02-26T05:48:25.941Z,91.92
2023-02-26T05:50:53.180Z,92.20
2023-02-26T05:53:20.549Z,92.85
2023-02-26T05:55:48.174Z,93.42
2023-02-26T05:58:15.930Z,93.22
2023-02-26T06:00:43.257Z,93.60
2023-02-26T06:03:10.398Z,93.67
2023-02-26T06:05:37.579Z,93.79
2023-02-26T06:08:05.892Z,93.34
2023-02-26T06:10:33.352Z,93.52
2023-02-26T06:13:00.513Z,93.42
2023-02-26T06:15:27.748Z,93.26
2023-02-26T06:17:54.870Z,93.23
2023-02-26T06:20:21.934Z,92.87
2023-02-26T06:22:48.985Z,92.76
2023-02-26T06:25:16.138Z,92.92
2023-02-26T06:27:43.236Z,92.73
2023-02-26T06:30:11.265Z,92.88
2023-02-26T06:32:38.516Z,93.14
2023-02-26T06:35:06.575Z,92.79
2023-02-26T06:37:33.741Z,92.91
2023-02-26T06:40:00.863Z,92.84
2023-02-26T06:42:27.934Z,92.78
2023-02-26T06:44:55.107Z,93.02
2023-02-26T06:47:23.024Z,93.01
2023-02-26T06:49:50.108Z,92.84
2023-02-26T06:52:17.299Z,93.37
2023-02-26T06:54:44.509Z,92.80
2023-02-26T06:57:11.736Z,92.80
2023-02-26T06:59:38.858Z,92.64
2023-02-26T07:02:05.965Z,92.65
2023-02-26T07:04:33.104Z,92.62
2023-02-26T07:07:00.227Z,92.60
2023-02-26T07:09:27.365Z,92.48
2023-02-26T07:11:54.430Z,92.21
2023-02-26T07:14:21.575Z,92.52
2023-02-26T07:16:48.800Z,92.13
2023-02-26T07:19:16.501Z,91.80
2023-02-26T07:21:43.741Z,91.75
2023-02-26T07:24:10.850Z,91.44
2023-02-26T07:26:37.980Z,91.54
2023-02-26T07:29:05.161Z,91.42
2023-02-26T07:31:32.545Z,91.31
2023-02-26T07:33:59.756Z,91.06
2023-02-26T07:36:27.365Z,91.31
2023-02-26T07:38:54.818Z,91.03
2023-02-26T07:41:21.983Z,91.68
2023-02-26T07:43:50.648Z,91.75
2023-02-26T07:46:17.892Z,92.38
2023-02-26T07:48:44.966Z,92.77
2023-02-26T07:51:12.147Z,92.98
2023-02-26T07:53:39.336Z,93.57
2023-02-26T07:56:06.460Z,93.89
2023-02-26T07:58:33.748Z,94.32
2023-02-26T08:01:01.009Z,94.42
2023-02-26T08:03:28.152Z,94.72
2023-02-26T08:05:55.318Z,94.99
2023-02-26T08:08:22.552Z,95.25
2023-02-26T08:10:49.752Z,95.52
2023-02-26T08:13:16.952Z,95.33
2023-02-26T08:15:44.404Z,95.40
2023-02-26T08:18:12.535Z,95.03
2023-02-26T08:20:39.970Z,95.00
2023-02-26T08:23:07.436Z,94.83
2023-02-26T08:25:34.607Z,94.63
2023-02-26T08:28:03.452Z,94.46
2023-02-26T08:30:31.168Z,93.89
2023-02-26T08:32:58.279Z,93.91
2023-02-26T08:35:25.447Z,93.68
2023-02-26T08:37:53.058Z,93.61
2023-02-26T08:40:20.419Z,93.41
2023-02-26T08:42:48.195Z,92.82
2023-02-26T08:45:15.559Z,92.09
2023-02-26T08:47:55.520Z,92.04
2023-02-26T08:50:24.145Z,91.48
2023-02-26T08:52:51.404Z,90.36
2023-02-26T08:55:18.612Z,89.47
2023-02-26T08:57:45.743Z,88.65
2023-02-26T09:00:16.482Z,87.72
2023-02-26T09:02:43.639Z,86.37
2023-02-26T09:05:12.322Z,84.91
2023-02-26T09:07:39.669Z,84.86
2023-02-26T09:10:08.062Z,84.72
2023-02-26T09:12:38.492Z,84.34
2023-02-26T09:15:07.420Z,84.09
2023-02-26T09:17:35.220Z,83.62
2023-02-26T09:20:03.012Z,82.84
2023-02-26T09:22:30.232Z,82.41
2023-02-26T09:24:57.671Z,81.60
2023-02-26T09:27:25.428Z,81.50
2023-02-26T09:29:52.544Z,81.08
2023-02-26T09:32:19.860Z,80.83
2023-02-26T09:34:47.077Z,80.25
2023-02-26T09:37:14.303Z,79.32
2023-02-26T09:39:41.538Z,78.74
2023-02-26T09:42:14.489Z,78.04
2023-02-26T09:44:42.114Z,77.65
2023-02-26T09:47:24.972Z,77.38
2023-02-26T09:49:58.210Z,77.30
2023-02-26T09:52:28.260Z,77.22
2023-02-26T09:55:16.702Z,76.28
2023-02-26T09:57:46.126Z,76.52
2023-02-26T10:00:38.551Z,75.41
2023-02-26T10:03:14.548Z,74.45
2023-02-26T10:06:09.044Z,75.47
2023-02-26T10:09:04.398Z,75.51
2023-02-26T10:11:50.175Z,75.75
2023-02-26T10:14:24.746Z,74.65
2023-02-26T10:16:55.451Z,74.38
2023-02-26T10:19:29.288Z,74.40
2023-02-26T10:22:22.442Z,74.10
2023-02-26T10:24:54.530Z,73.04
2023-02-26T10:27:31.549Z,73.70
2023-02-26T10:30:03.085Z,73.67
2023-02-26T10:32:41.467Z,73.39
2023-02-26T10:35:19.204Z,74.06
2023-02-26T10:38:05.170Z,74.68
2023-02-26T10:40:41.595Z,73.96
2023-02-26T10:43:30.248Z,73.55
2023-02-26T10:46:12.429Z,74.05
2023-02-26T10:48:59.860Z,73.98
2023-02-26T10:51:35.339Z,73.70
2023-02-26T10:54:17.450Z,72.79
2023-02-26T10:56:44.584Z,73.04
2023-02-26T10:59:11.732Z,72.58
2023-02-26T11:01:39.133Z,71.77
2023-02-26T11:04:10.177Z,72.10
2023-02-26T11:06:45.476Z,71.71
2023-02-26T11:09:34.159Z,70.46
2023-02-26T11:12:14.839Z,70.66
2023-02-26T11:14:48.683Z,70.89
2023-02-26T11:17:23.318Z,69.59
2023-02-26T11:20:15.914Z,68.74
2023-02-26T11:22:49.361Z,67.90
2023-02-26T11:25:22.877Z,67.79
2023-02-26T11:28:01.778Z,66.54
2023-02-26T11:30:32.344Z,66.37
2023-02-26T11:33:07.097Z,66.54
2023-02-26T11:35:34.218Z,66.75
2023-02-26T11:38:03.201Z,67.34
2023-02-26T11:40:39.095Z,67.51
2023-02-26T11:43:28.617Z,68.51
2023-02-26T11:45:59.607Z,68.59
2023-02-26T11:48:37.909Z,68.81
2023-02-26T11:51:07.548Z,68.21
2023-02-26T11:53:37.815Z,68.15
2023-02-26T11:56:12.095Z,67.12
2023-02-26T11:58:43.320Z,66.52
2023-02-26T12:01:13.370Z,66.56
2023-02-26T12:03:46.383Z,66.04
2023-02-26T12:06:25.026Z,65.91
2023-02-26T12:08:53.643Z,65.81
2023-02-26T12:11:26.586Z,65.02
2023-02-26T12:14:09.137Z,64.90
2023-02-26T12:16:54.851Z,64.83
2023-02-26T12:19:58.603Z,65.04
2023-02-26T12:22:55.469Z,64.41
2023-02-26T12:25:51.608Z,64.23
2023-02-26T12:28:39.898Z,64.61
2023-02-26T12:31:16.845Z,62.44
2023-02-26T12:34:06.428Z,61.70
2023-02-26T12:37:04.451Z,61.45
2023-02-26T12:39:48.574Z,60.55
2023-02-26T12:42:23.029Z,60.47
2023-02-26T12:45:27.752Z,59.57
2023-02-26T12:48:27.305Z,59.51
2023-02-26T12:51:28.862Z,59.92
2023-02-26T12:54:36.412Z,59.25
2023-02-26T12:57:21.697Z,58.77
2023-02-26T13:00:13.108Z,58.59
2023-02-26T13:03:04.213Z,57.78
2023-02-26T13:06:03.460Z,57.81
2023-02-26T13:08:49.232Z,56.88
2023-02-26T13:11:29.679Z,56.35
2023-02-26T13:14:24.508Z,57.14
2023-02-26T13:16:54.459Z,57.51
2023-02-26T13:19:48.615Z,57.60
2023-02-26T13:22:39.161Z,59.60
2023-02-26T13:25:19.730Z,63.94
2023-02-26T13:27:49.080Z,66.11
2023-02-26T13:30:22.118Z,67.78
2023-02-26T13:32:53.666Z,69.06
2023-02-26T13:35:39.413Z,70.11
2023-02-26T13:38:35.910Z,69.80
2023-02-26T13:41:12.961Z,70.10
2023-02-26T13:43:58.780Z,70.10
2023-02-26T13:46:28.728Z,70.15
2023-02-26T13:49:04.126Z,69.90
2023-02-26T13:51:39.130Z,69.90
2023-02-26T13:54:13.281Z,69.52
2023-02-26T13:56:40.773Z,69.40
2023-02-26T13:59:15.153Z,69.33
2023-02-26T14:01:50.204Z,68.70
2023-02-26T14:04:20.306Z,68.87
2023-02-26T14:06:49.327Z,68.93
2023-02-26T14:09:22.301Z,69.54
2023-02-26T14:11:55.174Z,69.25
2023-02-26T14:14:22.396Z,68.90
2023-02-26T14:17:08.170Z,68.29
2023-02-26T14:20:08.779Z,67.94
2023-02-26T14:22:42.071Z,67.96
2023-02-26T14:25:18.439Z,67.77
2023-02-26T14:27:48.137Z,66.97
2023-02-26T14:30:34.841Z,67.38
2023-02-26T14:33:03.805Z,67.45
2023-02-26T14:35:41.107Z,67.79
2023-02-26T14:38:13.739Z,68.08
2023-02-26T14:40:46.827Z,67.55
2023-02-26T14:43:22.389Z,67.74
2023-02-26T14:45:50.855Z,67.78
2023-02-26T14:48:22.089Z,67.76
2023-02-26T14:50:55.417Z,67.49
2023-02-26T14:53:37.602Z,65.51
2023-02-26T14:56:07.752Z,65.47
2023-02-26T14:58:56.312Z,64.40
2023-02-26T15:01:55.791Z,63.70
2023-02-26T15:04:52.418Z,64.93
2023-02-26T15:07:39.732Z,64.09
2023-02-26T15:10:10.128Z,63.92
2023-02-26T15:12:37.133Z,63.95
2023-02-26T15:15:18.973Z,63.82
2023-02-26T15:18:12.002Z,63.71
2023-02-26T15:20:51.104Z,64.13
2023-02-26T15:23:23.999Z,63.42
2023-02-26T15:25:51.590Z,63.73
2023-02-26T15:28:31.789Z,64.86
2023-02-26T15:31:01.087Z,65.10
2023-02-26T15:33:30.661Z,65.45
2023-02-26T15:35:59.367Z,65.78
2023-02-26T15:38:27.020Z,65.14
2023-02-26T15:40:58.417Z,65.59
2023-02-26T15:43:28.562Z,65.05
2023-02-26T15:45:58.817Z,65.18
2023-02-26T15:48:32.910Z,65.20
2023-02-26T15:51:03.497Z,64.17
2023-02-26T15:53:51.714Z,63.60
2023-02-26T15:56:24.695Z,61.87
2023-02-26T15:59:14.931Z,60.70
2023-02-26T16:01:42.312Z,60.83
2023-02-26T16:04:15.378Z,60.38
2023-02-26T16:06:53.102Z,60.54
2023-02-26T16:09:30.264Z,60.71
2023-02-26T16:12:01.148Z,60.57
2023-02-26T16:14:34.286Z,59.96
2023-02-26T16:17:01.844Z,59.95
2023-02-26T16:19:44.898Z,59.93
2023-02-26T16:22:50.416Z,60.08
2023-02-26T16:25:24.986Z,59.48
2023-02-26T16:28:02.268Z,59.07
2023-02-26T16:30:38.681Z,58.60
2023-02-26T16:33:15.450Z,58.38
2023-02-26T16:35:47.662Z,58.62
2023-02-26T16:38:25.057Z,59.04
2023-02-26T16:40:59.901Z,58.82
2023-02-26T16:43:45.498Z,58.78
2023-02-26T16:46:16.921Z,58.97
2023-02-26T16:48:48.806Z,59.49
2023-02-26T16:51:20.684Z,59.53
2023-02-26T16:53:58.353Z,59.86
2023-02-26T16:56:32.135Z,60.16
2023-02-26T16:59:17.093Z,60.26
2023-02-26T17:02:01.094Z,60.28
2023-02-26T17:04:37.229Z,60.40
2023-02-26T17:07:46.245Z,60.67
2023-02-26T17:10:24.703Z,60.52
2023-02-26T17:12:53.973Z,61.36
2023-02-26T17:15:32.782Z,61.47
2023-02-26T17:18:00.203Z,61.73
2023-02-26T17:20:29.646Z,61.97
2023-02-26T17:22:58.692Z,61.83
2023-02-26T17:25:36.863Z,62.17
2023-02-26T17:28:04.671Z,62.20
2023-02-26T17:30:33.754Z,62.53
2023-02-26T17:33:03.561Z,63.12
2023-02-26T17:35:31.687Z,63.39
2023-02-26T17:38:00.804Z,63.65
2023-02-26T17:40:31.990Z,63.83
2023-02-26T17:43:00.287Z,64.26
2023-02-26T17:45:27.464Z,64.51
2023-02-26T17:47:54.783Z,64.92
2023-02-26T17:50:30.393Z,64.94
2023-02-26T17:52:58.256Z,65.50
2023-02-26T17:55:25.506Z,65.69
2023-02-26T17:57:52.853Z,66.11
2023-02-26T18:00:20.254Z,66.40
2023-02-26T18:02:47.382Z,66.75
2023-02-26T18:05:14.574Z,67.40
2023-02-26T18:07:41.893Z,67.58
2023-02-26T18:10:17.020Z,67.95
2023-02-26T18:12:44.194Z,68.65
2023-02-26T18:15:11.961Z,68.98
2023-02-26T18:17:39.551Z,69.18
2023-02-26T18:20:09.302Z,70.04
2023-02-26T18:22:36.452Z,70.38
2023-02-26T18:25:03.698Z,70.97
2023-02-26T18:27:30.902Z,71.50
2023-02-26T18:29:59.462Z,71.97
2023-02-26T18:32:28.145Z,72.41
2023-02-26T18:34:55.409Z,73.04
2023-02-26T18:37:26.203Z,73.37
2023-02-26T18:39:53.719Z,73.93
2023-02-26T18:42:26.462Z,74.43
2023-02-26T18:44:54.933Z,74.90
2023-02-26T18:47:23.144Z,75.30
2023-02-26T18:49:52.145Z,75.88
2023-02-26T18:52:19.652Z,76.55
2023-02-26T18:54:46.824Z,76.49
2023-02-26T18:57:15.496Z,76.84
2023-02-26T18:59:42.605Z,77.13
2023-02-26T19:02:13.916Z,77.37
2023-02-26T19:04:41.962Z,77.41
2023-02-26T19:07:09.178Z,77.34
2023-02-26T19:09:36.523Z,77.36
2023-02-26T19:12:04.372Z,77.64
2023-02-26T19:14:32.106Z,77.95
2023-02-26T19:16:59.621Z,77.97
2023-02-26T19:19:26.878Z,78.20
2023-02-26T19:21:54.142Z,78.23
2023-02-26T19:24:21.335Z,78.39
2023-02-26T19:26:49.377Z,78.91
2023-02-26T19:29:19.018Z,78.53
2023-02-26T19:31:46.935Z,78.81
2023-02-26T19:34:14.517Z,78.53
2023-02-26T19:36:48.432Z,78.93
2023-02-26T19:39:17.255Z,79.01
2023-02-26T19:41:46.184Z,79.04
2023-02-26T19:44:13.475Z,79.19
2023-02-26T19:46:42.129Z,79.29
2023-02-26T19:49:12.583Z,79.58
2023-02-26T19:51:40.324Z,79.79
2023-02-26T19:54:07.688Z,79.54
2023-02-26T19:56:34.969Z,79.89
2023-02-26T19:59:02.637Z,80.08
2023-02-26T20:01:30.219Z,80.16
2023-02-26T20:03:58.123Z,80.49
2023-02-26T20:06:25.840Z,80.91
2023-02-26T20:08:53.146Z,80.91
2023-02-26T20:11:20.750Z,81.07
2023-02-26T20:13:48.266Z,81.06
2023-02-26T20:16:16.135Z,81.08
2023-02-26T20:18:45.942Z,80.96
2023-02-26T20:21:14.079Z,80.69
2023-02-26T20:23:42.009Z,81.08
2023-02-26T20:26:12.443Z,81.15
2023-02-26T20:28:40.337Z,80.97
2023-02-26T20:31:08.347Z,80.89
2023-02-26T20:33:39.752Z,80.96
2023-02-26T20:36:08.731Z,81.05
2023-02-26T20:38:36.389Z,80.88
2023-02-26T20:41:04.008Z,80.70
2023-02-26T20:43:31.460Z,81.42
2023-02-26T20:45:58.611Z,81.00
2023-02-26T20:48:26.000Z,81.24
2023-02-26T20:50:53.889Z,81.37
2023-02-26T20:53:22.262Z,81.29
2023-02-26T20:55:49.495Z,81.39
2023-02-26T20:58:17.081Z,81.72
2023-02-26T21:00:44.595Z,81.36
2023-02-26T21:03:11.843Z,81.66
2023-02-26T21:05:39.300Z,81.69
2023-02-26T21:08:06.507Z,81.57
2023-02-26T21:10:33.793Z,81.80
2023-02-26T21:13:01.065Z,81.83
2023-02-26T21:15:28.341Z,81.89
2023-02-26T21:17:55.484Z,81.91
2023-02-26T21:20:23.556Z,81.96
2023-02-26T21:22:51.473Z,82.00
2023-02-26T21:25:18.712Z,82.34
2023-02-26T21:27:45.975Z,82.29
2023-02-26T21:30:14.788Z,82.67
2023-02-26T21:32:42.828Z,82.20
2023-02-26T21:35:16.064Z,82.53
2023-02-26T21:37:46.981Z,82.79
2023-02-26T21:40:15.601Z,82.60
2023-02-26T21:42:43.535Z,82.94
2023-02-26T21:45:11.656Z,83.20
2023-02-26T21:47:39.430Z,83.19
2023-02-26T21:50:07.348Z,83.30
2023-02-26T21:52:34.722Z,83.48
2023-02-26T21:55:02.034Z,83.40
2023-02-26T21:57:29.736Z,83.38
2023-02-26T21:59:56.972Z,83.26
2023-02-26T22:02:24.496Z,83.12
2023-02-26T22:04:51.703Z,83.04
2023-02-26T22:07:20.079Z,83.21
2023-02-26T22:09:49.154Z,82.97
2023-02-26T22:12:17.414Z,82.91
2023-02-26T22:14:44.812Z,82.97
2023-02-26T22:17:11.968Z,82.75
2023-02-26T22:19:39.065Z,82.91
2023-02-26T22:22:06.540Z,82.57
2023-02-26T22:24:33.681Z,82.51
2023-02-26T22:27:00.808Z,82.50
2023-02-26T22:29:27.927Z,82.39
2023-02-26T22:31:56.925Z,82.57
2023-02-26T22:34:24.185Z,82.51
2023-02-26T22:36:52.421Z,82.45
2023-02-26T22:39:19.817Z,82.62
2023-02-26T22:41:47.547Z,82.78
2023-02-26T22:44:15.355Z,83.22
2023-02-26T22:46:42.644Z,83.31
2023-02-26T22:49:09.923Z,83.03
2023-02-26T22:51:37.225Z,83.14
2023-02-26T22:54:04.438Z,83.37
2023-02-26T22:56:31.984Z,83.42
2023-02-26T22:58:59.099Z,83.50
2023-02-26T23:01:26.307Z,83.71
2023-02-26T23:03:53.417Z,83.78
2023-02-26T23:06:22.541Z,83.78
2023-02-26T23:08:53.149Z,83.74
2023-02-26T23:11:20.642Z,83.58
2023-02-26T23:13:47.740Z,83.72
2023-02-26T23:16:15.384Z,83.53
2023-02-26T23:18:45.723Z,83.84
2023-02-26T23:21:12.899Z,84.07
2023-02-26T23:23:40.227Z,83.97
2023-02-26T23:26:07.754Z,84.19
2023-02-26T23:28:34.936Z,84.38
2023-02-26T23:31:02.190Z,84.13
2023-02-26T23:33:29.539Z,84.61
2023-02-26T23:35:56.647Z,84.18
2023-02-26T23:38:23.955Z,84.65
2023-02-26T23:40:51.210Z,84.75
2023-02-26T23:43:18.457Z,84.54
2023-02-26T23:45:45.525Z,85.77
2023-02-26T23:48:12.772Z,84.80
2023-02-26T23:50:40.015Z,85.75
2023-02-26T23:53:07.575Z,85.53
2023-02-26T23:55:34.805Z,85.33
2023-02-26T23:58:02.023Z,86.17
